createdAt,value
2022-10-11T00:01:52.950Z,2.38
2022-10-11T00:04:19.350Z,2.70
2022-10-11T00:06:47.166Z,3.03
2022-10-11T00:09:14.592Z,2.53
2022-10-11T00:11:40.960Z,2.70
2022-10-11T00:14:07.418Z,2.75
2022-10-11T00:16:34.110Z,2.40
2022-10-11T00:19:00.499Z,2.92
2022-10-11T00:21:27.100Z,2.75
2022-10-11T00:23:53.586Z,2.65
2022-10-11T00:26:19.990Z,2.83
2022-10-11T00:28:46.505Z,3.00
2022-10-11T00:31:15.650Z,2.90
2022-10-11T00:33:42.041Z,2.53
2022-10-11T00:36:09.545Z,2.47
2022-10-11T00:38:36.214Z,2.30
2022-10-11T00:41:02.721Z,2.53
2022-10-11T00:43:30.697Z,2.47
2022-10-11T00:45:56.984Z,2.10
2022-10-11T00:48:42.350Z,2.13
2022-10-11T00:51:26.275Z,2.60
2022-10-11T00:53:53.469Z,2.60
2022-10-11T00:56:24.233Z,2.35
2022-10-11T00:58:50.773Z,2.25
2022-10-11T01:01:17.197Z,2.67
2022-10-11T01:03:44.233Z,1.92
2022-10-11T01:06:10.648Z,2.40
2022-10-11T01:08:38.584Z,2.03
2022-10-11T01:11:05.781Z,1.90
2022-10-11T01:13:51.217Z,2.20
2022-10-11T01:16:40.742Z,2.53
2022-10-11T01:19:16.351Z,2.42
2022-10-11T01:21:49.170Z,2.13
2022-10-11T01:24:37.314Z,2.92
2022-10-11T01:27:09.679Z,2.50
2022-10-11T01:29:45.273Z,1.83
2022-10-11T01:32:26.198Z,2.47
2022-10-11T01:34:59.752Z,2.38
2022-10-11T01:37:31.902Z,2.55
2022-10-11T01:40:09.675Z,2.30
2022-10-11T01:42:40.149Z,2.33
2022-10-11T01:45:12.845Z,2.03
2022-10-11T01:47:39.237Z,2.33
2022-10-11T01:50:08.022Z,2.25
2022-10-11T01:52:35.889Z,2.03
2022-10-11T01:55:25.604Z,2.25
2022-10-11T01:58:09.991Z,2.13
2022-10-11T02:00:42.421Z,2.13
2022-10-11T02:03:19.689Z,2.03
2022-10-11T02:05:45.946Z,1.70
2022-10-11T02:08:31.028Z,1.88
2022-10-11T02:11:00.463Z,2.00
2022-10-11T02:13:31.660Z,2.45
2022-10-11T02:16:02.069Z,1.88
2022-10-11T02:18:34.556Z,2.30
2022-10-11T02:21:02.680Z,2.22
2022-10-11T02:23:36.211Z,2.25
2022-10-11T02:26:05.174Z,2.90
2022-10-11T02:28:35.888Z,2.55
2022-10-11T02:31:04.260Z,2.13
2022-10-11T02:33:39.076Z,2.55
2022-10-11T02:36:10.942Z,2.22
2022-10-11T02:38:45.109Z,2.10
2022-10-11T02:41:32.579Z,2.25
2022-10-11T02:44:09.413Z,1.92
2022-10-11T02:46:36.741Z,2.00
2022-10-11T02:49:03.304Z,2.30
2022-10-11T02:51:30.859Z,2.17
2022-10-11T02:53:57.284Z,2.47
2022-10-11T02:56:23.635Z,1.80
2022-10-11T02:58:50.033Z,1.92
2022-10-11T03:01:16.497Z,2.22
2022-10-11T03:03:42.850Z,1.98
2022-10-11T03:06:09.790Z,1.98
2022-10-11T03:08:36.166Z,2.20
2022-10-11T03:11:02.537Z,2.35
2022-10-11T03:13:28.901Z,2.25
2022-10-11T03:16:02.934Z,2.50
2022-10-11T03:18:30.636Z,1.90
2022-10-11T03:20:57.081Z,2.20
2022-10-11T03:23:23.431Z,2.05
2022-10-11T03:25:51.851Z,2.08
2022-10-11T03:28:18.692Z,2.55
2022-10-11T03:30:49.705Z,2.67
2022-10-11T03:33:17.099Z,2.80
2022-10-11T03:35:47.763Z,2.60
2022-10-11T03:38:16.176Z,3.08
2022-10-11T03:40:43.574Z,2.50
2022-10-11T03:43:10.578Z,2.60
2022-10-11T03:45:37.068Z,2.47
2022-10-11T03:48:04.210Z,2.53
2022-10-11T03:50:31.251Z,3.28
2022-10-11T03:52:57.624Z,2.70
2022-10-11T03:55:24.000Z,2.40
2022-10-11T03:57:50.351Z,2.20
2022-10-11T04:00:17.078Z,2.85
2022-10-11T04:02:43.429Z,3.13
2022-10-11T04:05:10.296Z,2.47
2022-10-11T04:07:36.656Z,3.00
2022-10-11T04:10:03.125Z,2.80
2022-10-11T04:12:29.494Z,3.05
2022-10-11T04:14:55.843Z,2.70
2022-10-11T04:17:22.203Z,3.00
2022-10-11T04:19:48.548Z,2.92
2022-10-11T04:22:14.919Z,2.80
2022-10-11T04:24:41.310Z,2.97
2022-10-11T04:27:07.722Z,3.17
2022-10-11T04:29:34.164Z,3.30
2022-10-11T04:32:00.550Z,2.85
2022-10-11T04:34:26.921Z,3.25
2022-10-11T04:36:53.290Z,3.22
2022-10-11T04:39:19.697Z,3.25
2022-10-11T04:41:46.065Z,2.83
2022-10-11T04:44:12.420Z,2.65
2022-10-11T04:46:38.885Z,2.72
2022-10-11T04:49:05.469Z,2.90
2022-10-11T04:51:33.641Z,2.60
2022-10-11T04:54:00.018Z,2.97
2022-10-11T04:56:26.422Z,2.45
2022-10-11T04:58:54.425Z,3.00
2022-10-11T05:01:21.151Z,2.80
2022-10-11T05:03:48.388Z,3.10
2022-10-11T05:06:14.846Z,3.08
2022-10-11T05:08:41.287Z,3.30
2022-10-11T05:11:11.371Z,3.10
2022-10-11T05:16:10.431Z,2.90
2022-10-11T05:18:37.195Z,2.55
2022-10-11T05:21:09.485Z,2.90
2022-10-11T05:23:37.067Z,2.90
2022-10-11T05:26:04.247Z,3.33
2022-10-11T05:28:31.391Z,3.30
2022-10-11T05:30:58.369Z,3.20
2022-10-11T05:33:25.870Z,3.13
2022-10-11T05:35:52.821Z,3.00
2022-10-11T05:38:19.288Z,3.20
2022-10-11T05:40:45.733Z,3.78
2022-10-11T05:43:12.280Z,2.97
2022-10-11T05:45:39.537Z,3.03
2022-10-11T05:48:06.057Z,3.53
2022-10-11T05:50:32.570Z,3.33
2022-10-11T05:52:59.043Z,3.33
2022-10-11T05:55:25.640Z,3.05
2022-10-11T05:57:56.214Z,3.15
2022-10-11T06:00:23.795Z,4.07
2022-10-11T06:02:50.174Z,3.17
2022-10-11T06:05:16.904Z,3.30
2022-10-11T06:07:43.346Z,2.88
2022-10-11T06:10:09.933Z,3.30
2022-10-11T06:12:36.316Z,3.42
2022-10-11T06:15:03.992Z,2.97
2022-10-11T06:17:30.513Z,3.25
2022-10-11T06:19:56.894Z,4.00
2022-10-11T06:22:23.336Z,3.97
2022-10-11T06:24:49.758Z,3.20
2022-10-11T06:27:16.229Z,3.45
2022-10-11T06:29:42.592Z,3.08
2022-10-11T06:32:09.065Z,3.20
2022-10-11T06:34:35.437Z,2.95
2022-10-11T06:37:01.825Z,4.43
2022-10-11T06:39:28.267Z,3.60
2022-10-11T06:41:54.659Z,2.80
2022-10-11T06:44:21.085Z,3.67
2022-10-11T06:46:47.447Z,3.03
2022-10-11T06:49:13.837Z,3.60
2022-10-11T06:51:40.242Z,4.05
2022-10-11T06:54:06.781Z,3.53
2022-10-11T06:56:33.189Z,3.70
2022-10-11T06:59:00.173Z,3.22
2022-10-11T07:01:27.078Z,3.20
2022-10-11T07:03:55.303Z,3.67
2022-10-11T07:06:23.761Z,3.60
2022-10-11T07:08:50.344Z,3.97
2022-10-11T07:11:22.408Z,3.95
2022-10-11T07:13:51.060Z,4.38
2022-10-11T07:16:18.000Z,4.85
2022-10-11T07:18:45.015Z,4.30
2022-10-11T07:21:13.512Z,3.20
2022-10-11T07:23:39.958Z,3.97
2022-10-11T07:26:07.544Z,4.00
2022-10-11T07:28:34.945Z,3.50
2022-10-11T07:31:12.798Z,3.72
2022-10-11T07:33:39.387Z,3.83
2022-10-11T07:36:06.791Z,4.00
2022-10-11T07:38:33.918Z,3.45
2022-10-11T07:41:05.257Z,3.40
2022-10-11T07:43:31.743Z,3.40
2022-10-11T07:46:03.946Z,3.50
2022-10-11T07:48:31.624Z,3.05
2022-10-11T07:51:18.886Z,4.10
2022-10-11T07:53:47.508Z,3.72
2022-10-11T07:56:17.823Z,3.78
2022-10-11T07:58:44.653Z,3.63
2022-10-11T08:01:11.649Z,4.05
2022-10-11T08:03:38.188Z,3.85
2022-10-11T08:06:08.939Z,3.95
2022-10-11T08:08:36.318Z,4.88
2022-10-11T08:11:02.875Z,4.15
2022-10-11T08:13:29.260Z,4.25
2022-10-11T08:15:56.270Z,4.47
2022-10-11T08:18:22.644Z,3.63
2022-10-11T08:20:49.032Z,3.78
2022-10-11T08:23:17.023Z,3.83
2022-10-11T08:25:45.210Z,3.88
2022-10-11T08:28:16.587Z,4.18
2022-10-11T08:30:50.782Z,3.22
2022-10-11T08:33:18.078Z,3.92
2022-10-11T08:35:44.563Z,4.28
2022-10-11T08:38:11.226Z,3.85
2022-10-11T08:40:37.639Z,3.30
2022-10-11T08:43:06.923Z,3.90
2022-10-11T08:45:39.419Z,3.00
2022-10-11T08:48:18.088Z,3.58
2022-10-11T08:50:47.264Z,3.13
2022-10-11T08:53:21.653Z,3.22
2022-10-11T08:55:51.140Z,3.20
2022-10-11T08:58:21.482Z,3.47
2022-10-11T09:00:51.909Z,3.58
2022-10-11T09:03:39.975Z,3.88
2022-10-11T09:06:15.208Z,2.88
2022-10-11T09:09:05.942Z,2.72
2022-10-11T09:11:32.220Z,2.35
2022-10-11T09:14:11.041Z,2.78
2022-10-11T09:16:55.623Z,3.13
2022-10-11T09:19:40.715Z,2.60
2022-10-11T09:22:37.834Z,3.10
2022-10-11T09:25:23.535Z,2.50
2022-10-11T09:28:02.746Z,2.60
2022-10-11T09:30:29.830Z,2.63
2022-10-11T09:33:19.825Z,2.92
2022-10-11T09:35:51.812Z,2.80
2022-10-11T09:38:26.675Z,2.63
2022-10-11T09:41:06.073Z,2.85
2022-10-11T09:43:32.479Z,3.08
2022-10-11T09:45:58.893Z,2.80
2022-10-11T09:48:30.547Z,3.10
2022-10-11T09:51:03.178Z,2.50
2022-10-11T09:54:03.464Z,2.95
2022-10-11T09:56:31.414Z,2.75
2022-10-11T09:59:14.553Z,3.08
2022-10-11T10:01:40.989Z,4.03
2022-10-11T10:04:11.943Z,3.50
2022-10-11T10:06:38.871Z,2.95
2022-10-11T10:09:27.180Z,3.03
2022-10-11T10:14:26.687Z,2.30
2022-10-11T10:17:01.837Z,2.33
2022-10-11T10:19:28.483Z,1.95
2022-10-11T10:21:55.817Z,2.50
2022-10-11T10:24:34.705Z,2.25
2022-10-11T10:27:10.239Z,1.92
2022-10-11T10:29:37.686Z,1.90
2022-10-11T10:32:20.608Z,2.80
2022-10-11T10:34:55.482Z,1.95
2022-10-11T10:37:56.988Z,2.67
2022-10-11T10:40:39.545Z,2.15
2022-10-11T10:43:06.169Z,2.72
2022-10-11T10:45:44.489Z,2.33
2022-10-11T10:49:11.690Z,2.20
2022-10-11T10:51:48.406Z,1.92
2022-10-11T10:54:43.118Z,1.98
2022-10-11T10:57:31.380Z,2.33
2022-10-11T11:02:40.639Z,1.73
2022-10-11T11:05:17.989Z,2.17
2022-10-11T11:07:54.193Z,1.75
2022-10-11T11:10:30.553Z,2.00
2022-10-11T11:13:19.212Z,2.70
2022-10-11T11:16:12.978Z,2.13
2022-10-11T11:18:50.606Z,2.55
2022-10-11T11:21:25.057Z,2.50
2022-10-11T11:24:07.001Z,2.50
2022-10-11T11:26:44.725Z,2.28
2022-10-11T11:29:23.193Z,2.28
2022-10-11T11:32:05.374Z,2.33
2022-10-11T11:34:38.748Z,2.15
2022-10-11T11:37:30.748Z,2.72
2022-10-11T11:40:10.539Z,2.53
2022-10-11T11:42:45.016Z,2.22
2022-10-11T11:45:27.214Z,2.35
2022-10-11T11:48:06.750Z,3.33
2022-10-11T11:50:58.514Z,2.30
2022-10-11T11:53:40.237Z,2.38
2022-10-11T11:56:31.880Z,2.35
2022-10-11T11:59:23.313Z,2.88
2022-10-11T12:01:59.491Z,2.65
2022-10-11T12:04:29.876Z,2.38
2022-10-11T12:07:21.371Z,2.15
2022-10-11T12:09:50.632Z,2.42
2022-10-11T12:12:36.446Z,2.20
2022-10-11T12:15:09.021Z,2.10
2022-10-11T12:17:56.346Z,2.50
2022-10-11T12:20:25.720Z,2.33
2022-10-11T12:23:25.269Z,2.65
2022-10-11T12:26:18.279Z,2.17
2022-10-11T12:28:58.341Z,2.38
2022-10-11T12:31:30.197Z,1.92
2022-10-11T12:34:43.061Z,2.17
2022-10-11T12:39:53.061Z,2.88
2022-10-11T12:42:40.421Z,2.90
2022-10-11T12:45:13.069Z,3.00
2022-10-11T12:48:03.621Z,2.08
2022-10-11T12:50:51.318Z,2.42
2022-10-11T12:53:17.586Z,2.50
2022-10-11T12:55:49.793Z,2.33
2022-10-11T12:58:29.621Z,2.25
2022-10-11T13:00:57.788Z,2.55
2022-10-11T13:03:39.297Z,2.38
2022-10-11T13:06:22.050Z,2.53
2022-10-11T13:08:54.476Z,2.88
2022-10-11T13:11:24.005Z,3.10
2022-10-11T13:14:17.917Z,2.10
2022-10-11T13:17:16.878Z,2.90
2022-10-11T13:19:43.492Z,2.92
2022-10-11T13:22:19.207Z,2.53
2022-10-11T13:24:45.685Z,2.17
2022-10-11T13:27:24.186Z,2.40
2022-10-11T13:29:53.119Z,2.13
2022-10-11T13:32:25.082Z,2.40
2022-10-11T13:35:19.724Z,2.22
2022-10-11T13:37:49.450Z,2.45
2022-10-11T13:40:17.722Z,2.80
2022-10-11T13:42:48.357Z,2.30
2022-10-11T13:45:18.454Z,2.78
2022-10-11T13:47:45.862Z,2.17
2022-10-11T13:50:15.438Z,2.10
2022-10-11T13:52:55.922Z,2.70
2022-10-11T13:55:42.465Z,3.22
2022-10-11T13:58:18.408Z,2.80
2022-10-11T14:01:18.589Z,3.40
2022-10-11T14:03:58.083Z,2.50
2022-10-11T14:06:25.153Z,2.65
2022-10-11T14:08:56.065Z,2.00
2022-10-11T14:11:35.183Z,2.65
2022-10-11T14:14:47.532Z,2.47
2022-10-11T14:17:16.807Z,2.22
2022-10-11T14:19:44.994Z,2.63
2022-10-11T14:22:18.228Z,2.67
2022-10-11T14:24:48.116Z,2.78
2022-10-11T14:27:20.591Z,2.40
2022-10-11T14:30:00.501Z,2.20
2022-10-11T14:32:34.669Z,2.30
2022-10-11T14:35:01.148Z,3.03
2022-10-11T14:37:27.616Z,2.72
2022-10-11T14:39:54.003Z,2.38
2022-10-11T14:42:20.413Z,2.53
2022-10-11T14:44:47.160Z,2.45
2022-10-11T14:47:15.831Z,4.85
2022-10-11T14:49:42.674Z,2.47
2022-10-11T14:52:12.257Z,2.72
2022-10-11T14:57:05.158Z,2.90
2022-10-11T14:59:34.639Z,2.70
2022-10-11T15:02:02.106Z,2.72
2022-10-11T15:04:29.084Z,3.03
2022-10-11T15:06:56.902Z,2.83
2022-10-11T15:09:23.377Z,3.03
2022-10-11T15:11:51.158Z,3.03
2022-10-11T15:14:26.443Z,2.97
2022-10-11T15:16:53.101Z,2.65
2022-10-11T15:19:22.175Z,2.63
2022-10-11T15:21:49.094Z,2.90
2022-10-11T15:24:15.716Z,2.80
2022-10-11T15:26:42.272Z,3.13
2022-10-11T15:29:11.215Z,2.42
2022-10-11T15:31:37.638Z,2.72
2022-10-11T15:34:04.112Z,2.67
2022-10-11T15:36:30.651Z,2.75
2022-10-11T15:38:57.225Z,2.60
2022-10-11T15:41:23.957Z,2.90
2022-10-11T15:43:50.554Z,2.60
2022-10-11T15:46:19.760Z,2.38
2022-10-11T15:48:47.129Z,2.85
2022-10-11T15:51:13.549Z,3.15
2022-10-11T15:53:39.977Z,3.22
2022-10-11T15:56:09.312Z,2.70
2022-10-11T15:58:38.485Z,3.03
2022-10-11T16:01:30.317Z,2.88
2022-10-11T16:03:58.304Z,3.10
2022-10-11T16:06:24.920Z,2.70
2022-10-11T16:08:53.037Z,2.78
2022-10-11T16:11:19.447Z,2.65
2022-10-11T16:13:45.899Z,3.50
2022-10-11T16:16:12.580Z,4.05
2022-10-11T16:18:39.322Z,3.75
2022-10-11T16:21:15.181Z,3.70
2022-10-11T16:26:15.034Z,2.95
2022-10-11T16:28:52.387Z,2.35
2022-10-11T16:31:20.868Z,2.72
2022-10-11T16:33:47.937Z,2.58
2022-10-11T16:36:32.424Z,2.72
2022-10-11T16:39:04.240Z,2.63
2022-10-11T16:41:30.846Z,3.40
2022-10-11T16:43:57.313Z,3.33
2022-10-11T16:46:23.873Z,2.70
2022-10-11T16:48:50.278Z,2.65
2022-10-11T16:51:16.665Z,3.75
2022-10-11T16:53:43.137Z,3.05
2022-10-11T16:56:11.869Z,3.83
2022-10-11T16:58:38.381Z,3.92
2022-10-11T17:01:09.547Z,4.00
2022-10-11T17:03:36.658Z,3.88
2022-10-11T17:06:12.790Z,4.93
2022-10-11T17:08:39.349Z,5.60
2022-10-11T17:11:06.334Z,5.15
2022-10-11T17:13:32.805Z,6.88
2022-10-11T17:15:59.389Z,4.72
2022-10-11T17:18:30.043Z,6.18
2022-10-11T17:21:33.628Z,5.70
2022-10-11T17:29:31.168Z,5.25
2022-10-11T17:31:58.121Z,4.80
2022-10-11T17:34:24.598Z,5.43
2022-10-11T17:36:50.993Z,5.85
2022-10-11T17:39:19.809Z,4.90
2022-10-11T17:41:46.540Z,5.03
2022-10-11T17:44:13.213Z,4.93
2022-10-11T17:46:39.741Z,4.43
2022-10-11T17:49:07.710Z,4.03
2022-10-11T17:51:35.804Z,4.55
2022-10-11T17:54:02.978Z,3.65
2022-10-11T17:56:33.705Z,4.05
2022-10-11T17:59:03.197Z,4.45
2022-10-11T18:01:29.827Z,3.88
2022-10-11T18:03:58.599Z,4.45
2022-10-11T18:06:28.787Z,4.50
2022-10-11T18:08:57.123Z,4.22
2022-10-11T18:11:23.726Z,3.88
2022-10-11T18:13:51.958Z,3.33
2022-10-11T18:16:20.927Z,4.13
2022-10-11T18:18:47.511Z,3.00
2022-10-11T18:21:13.983Z,3.50
2022-10-11T18:23:40.973Z,3.67
2022-10-11T18:26:16.077Z,4.18
2022-10-11T18:28:43.331Z,4.38
2022-10-11T18:31:14.134Z,4.10
2022-10-11T18:33:42.013Z,3.58
2022-10-11T18:36:10.335Z,4.45
2022-10-11T18:38:38.006Z,3.50
2022-10-11T18:41:08.641Z,4.22
2022-10-11T18:43:35.344Z,5.30
2022-10-11T18:46:06.512Z,5.32
2022-10-11T18:48:33.358Z,6.28
2022-10-11T18:51:18.455Z,5.10
2022-10-11T18:53:45.531Z,5.35
2022-10-11T18:56:12.776Z,9.00
2022-10-11T18:58:40.301Z,6.63
2022-10-11T19:01:13.176Z,7.78
2022-10-11T19:03:39.599Z,6.65
2022-10-11T19:06:08.825Z,6.78
2022-10-11T19:08:35.439Z,7.13
2022-10-11T19:11:08.448Z,9.18
2022-10-11T19:13:35.671Z,8.18
2022-10-11T19:16:14.417Z,6.90
2022-10-11T19:18:44.256Z,7.25
2022-10-11T19:21:12.844Z,7.72
2022-10-11T19:23:44.595Z,6.95
2022-10-11T19:26:14.512Z,8.13
2022-10-11T19:31:11.104Z,8.95
2022-10-11T19:33:37.482Z,8.95
2022-10-11T19:36:05.328Z,9.93
2022-10-11T19:38:33.509Z,11.30
2022-10-11T19:41:01.126Z,9.45
2022-10-11T19:43:27.743Z,9.23
2022-10-11T19:46:04.771Z,8.70
2022-10-11T19:48:31.762Z,8.98
2022-10-11T19:51:02.814Z,10.13
2022-10-11T19:53:29.217Z,12.93
2022-10-11T19:55:55.589Z,13.65
2022-10-11T19:58:21.951Z,12.45
2022-10-11T20:00:48.867Z,13.02
2022-10-11T20:03:15.235Z,14.85
2022-10-11T20:05:41.617Z,12.65
2022-10-11T20:08:07.978Z,12.77
2022-10-11T20:10:34.325Z,11.38
2022-10-11T20:13:00.692Z,10.02
2022-10-11T20:15:27.101Z,9.57
2022-10-11T20:17:53.547Z,9.65
2022-10-11T20:20:20.160Z,8.43
2022-10-11T20:22:46.618Z,9.60
2022-10-11T20:25:12.980Z,8.82
2022-10-11T20:27:42.327Z,7.82
2022-10-11T20:30:09.882Z,7.78
2022-10-11T20:32:36.249Z,8.57
2022-10-11T20:35:02.748Z,7.95
2022-10-11T20:37:29.105Z,8.15
2022-10-11T20:39:55.468Z,8.75
2022-10-11T20:42:24.288Z,9.15
2022-10-11T20:44:52.849Z,9.10
2022-10-11T20:47:19.209Z,8.45
2022-10-11T20:49:45.581Z,8.27
2022-10-11T20:52:12.009Z,8.00
2022-10-11T20:54:40.520Z,6.90
2022-10-11T20:57:07.046Z,7.78
2022-10-11T20:59:33.398Z,7.30
2022-10-11T21:01:59.864Z,7.13
2022-10-11T21:04:26.242Z,7.72
2022-10-11T21:06:52.623Z,8.35
2022-10-11T21:09:19.113Z,7.78
2022-10-11T21:11:45.716Z,8.82
2022-10-11T21:14:13.779Z,8.57
2022-10-11T21:16:40.212Z,8.48
2022-10-11T21:19:06.625Z,11.32
2022-10-11T21:21:33.014Z,8.82
2022-10-11T21:24:01.342Z,8.23
2022-10-11T21:26:28.652Z,8.35
2022-10-11T21:28:55.153Z,7.70
2022-10-11T21:31:22.381Z,7.60
2022-10-11T21:33:49.109Z,9.52
2022-10-11T21:36:20.477Z,11.40
2022-10-11T21:38:48.021Z,14.00
2022-10-11T21:41:17.075Z,13.13
2022-10-11T21:43:43.625Z,13.27
2022-10-11T21:47:04.962Z,15.55
2022-10-11T21:49:17.477Z,15.35
2022-10-11T21:51:43.900Z,16.40
2022-10-11T21:54:10.243Z,19.40
2022-10-11T21:56:36.623Z,19.05
2022-10-11T21:59:06.500Z,18.65
2022-10-11T22:01:36.769Z,17.85
2022-10-11T22:04:09.737Z,17.48
2022-10-11T22:06:37.298Z,16.27
2022-10-11T22:09:04.753Z,18.92
2022-10-11T22:11:31.213Z,17.67
2022-10-11T22:13:57.824Z,18.13
2022-10-11T22:16:24.210Z,17.20
2022-10-11T22:18:53.312Z,15.98
2022-10-11T22:21:22.168Z,17.83
2022-10-11T22:23:50.041Z,17.63
2022-10-11T22:26:18.691Z,17.52
2022-10-11T22:28:48.569Z,16.13
2022-10-11T22:33:42.503Z,15.43
2022-10-11T22:36:10.348Z,17.60
2022-10-11T22:38:37.377Z,16.85
2022-10-11T22:41:03.743Z,15.20
2022-10-11T22:43:30.125Z,15.48
2022-10-11T22:45:56.608Z,14.07
2022-10-11T22:48:23.113Z,14.38
2022-10-11T22:50:49.517Z,14.63
2022-10-11T22:53:16.068Z,14.15
2022-10-11T22:55:42.415Z,14.90
2022-10-11T22:58:08.936Z,14.20
2022-10-11T23:00:35.373Z,12.93
2022-10-11T23:03:01.810Z,14.25
2022-10-11T23:05:28.217Z,11.70
2022-10-11T23:07:54.590Z,12.05
2022-10-11T23:10:21.044Z,10.98
2022-10-11T23:12:47.599Z,9.18
2022-10-11T23:15:15.181Z,8.70
2022-10-11T23:17:42.124Z,7.95
2022-10-11T23:20:09.060Z,7.10
2022-10-11T23:22:35.564Z,7.25
2022-10-11T23:25:01.912Z,7.88
2022-10-11T23:27:29.732Z,6.30
2022-10-11T23:29:56.161Z,6.68
2022-10-11T23:32:22.569Z,6.90
2022-10-11T23:34:48.928Z,6.07
2022-10-11T23:37:15.279Z,6.88
2022-10-11T23:39:41.643Z,5.93
2022-10-11T23:42:07.992Z,6.45
2022-10-11T23:44:34.340Z,6.57
2022-10-11T23:47:00.697Z,6.63
2022-10-11T23:49:27.046Z,7.18
2022-10-11T23:51:53.404Z,6.75
2022-10-11T23:54:19.761Z,6.60
2022-10-11T23:56:46.125Z,7.32
2022-10-11T23:59:12.522Z,7.72
